sensor_id;sensor_type;location;lat;lon;timestamp;P1;durP1;ratioP1;P2;durP2;ratioP2
78205;SDS011;67480;48.920;12.880;2024-01-07T04:32:17;10.60;;;7.57;;
78205;SDS011;67480;48.920;12.880;2024-01-07T08:59:59;6.60;;;5.72;;
78205;SDS011;67480;48.920;12.880;2024-01-07T09:02:25;7.45;;;5.85;;
78205;SDS011;67480;48.920;12.880;2024-01-07T09:04:50;6.32;;;5.38;;
78205;SDS011;67480;48.920;12.880;2024-01-07T09:07:16;7.57;;;5.68;;
78205;SDS011;67480;48.920;12.880;2024-01-07T09:09:41;7.07;;;4.97;;
78205;SDS011;67480;48.920;12.880;2024-01-07T09:12:07;6.05;;;5.20;;
78205;SDS011;67480;48.920;12.880;2024-01-07T09:14:32;5.90;;;4.93;;
78205;SDS011;67480;48.920;12.880;2024-01-07T09:16:58;5.70;;;5.10;;
78205;SDS011;67480;48.920;12.880;2024-01-07T09:19:23;5.95;;;5.00;;
78205;SDS011;67480;48.920;12.880;2024-01-07T09:21:48;5.32;;;4.82;;
78205;SDS011;67480;48.920;12.880;2024-01-07T09:24:14;7.43;;;5.22;;
78205;SDS011;67480;48.920;12.880;2024-01-07T09:26:39;6.88;;;4.68;;
78205;SDS011;67480;48.920;12.880;2024-01-07T09:29:05;5.60;;;4.90;;
78205;SDS011;67480;48.920;12.880;2024-01-07T09:31:30;6.20;;;4.80;;
78205;SDS011;67480;48.920;12.880;2024-01-07T09:33:55;8.13;;;6.13;;
78205;SDS011;67480;48.920;12.880;2024-01-07T09:36:21;6.25;;;5.45;;
78205;SDS011;67480;48.920;12.880;2024-01-07T09:38:46;5.38;;;4.88;;
78205;SDS011;67480;48.920;12.880;2024-01-07T09:41:11;6.72;;;5.10;;
78205;SDS011;67480;48.920;12.880;2024-01-07T09:43:36;7.93;;;6.22;;
78205;SDS011;67480;48.920;12.880;2024-01-07T09:46:02;5.57;;;4.90;;
78205;SDS011;67480;48.920;12.880;2024-01-07T09:48:28;5.50;;;4.95;;
78205;SDS011;67480;48.920;12.880;2024-01-07T09:50:53;6.82;;;5.55;;
78205;SDS011;67480;48.920;12.880;2024-01-07T09:53:19;6.43;;;5.53;;
78205;SDS011;67480;48.920;12.880;2024-01-07T09:56:02;6.90;;;5.32;;
78205;SDS011;67480;48.920;12.880;2024-01-07T09:58:36;6.90;;;6.20;;
78205;SDS011;67480;48.920;12.880;2024-01-07T10:01:02;7.22;;;5.93;;
78205;SDS011;67480;48.920;12.880;2024-01-07T10:03:29;7.85;;;6.75;;
78205;SDS011;67480;48.920;12.880;2024-01-07T10:05:55;6.85;;;6.05;;
78205;SDS011;67480;48.920;12.880;2024-01-07T10:08:20;7.75;;;6.35;;
78205;SDS011;67480;48.920;12.880;2024-01-07T10:10:48;7.47;;;6.45;;
78205;SDS011;67480;48.920;12.880;2024-01-07T10:13:13;10.38;;;8.90;;
78205;SDS011;67480;48.920;12.880;2024-01-07T10:15:39;75.85;;;49.83;;
78205;SDS011;67480;48.920;12.880;2024-01-07T10:18:04;123.93;;;70.40;;
78205;SDS011;67480;48.920;12.880;2024-01-07T10:20:32;53.25;;;36.95;;
78205;SDS011;67480;48.920;12.880;2024-01-07T10:22:58;43.88;;;32.53;;
78205;SDS011;67480;48.920;12.880;2024-01-07T10:25:24;46.72;;;36.70;;
78205;SDS011;67480;48.920;12.880;2024-01-07T10:27:49;39.60;;;32.67;;
78205;SDS011;67480;48.920;12.880;2024-01-07T10:30:15;26.65;;;22.23;;
78205;SDS011;67480;48.920;12.880;2024-01-07T10:32:44;25.77;;;19.40;;
78205;SDS011;67480;48.920;12.880;2024-01-07T10:35:12;35.53;;;26.83;;
78205;SDS011;67480;48.920;12.880;2024-01-07T10:37:41;30.70;;;23.05;;
78205;SDS011;67480;48.920;12.880;2024-01-07T10:40:07;52.28;;;33.00;;
78205;SDS011;67480;48.920;12.880;2024-01-07T10:42:36;62.53;;;41.40;;
78205;SDS011;67480;48.920;12.880;2024-01-07T10:45:03;37.20;;;29.08;;
78205;SDS011;67480;48.920;12.880;2024-01-07T10:47:29;49.35;;;35.80;;
78205;SDS011;67480;48.920;12.880;2024-01-07T10:49:56;29.83;;;26.63;;
78205;SDS011;67480;48.920;12.880;2024-01-07T10:52:23;26.10;;;21.25;;
78205;SDS011;67480;48.920;12.880;2024-01-07T10:54:51;27.58;;;24.77;;
78205;SDS011;67480;48.920;12.880;2024-01-07T10:59:55;17.58;;;15.15;;
78205;SDS011;67480;48.920;12.880;2024-01-07T11:02:21;17.13;;;14.93;;
78205;SDS011;67480;48.920;12.880;2024-01-07T11:04:56;18.25;;;15.07;;
78205;SDS011;67480;48.920;12.880;2024-01-07T11:07:55;14.85;;;13.10;;
78205;SDS011;67480;48.920;12.880;2024-01-07T11:10:25;14.60;;;12.95;;
78205;SDS011;67480;48.920;12.880;2024-01-07T11:12:59;15.13;;;12.88;;
78205;SDS011;67480;48.920;12.880;2024-01-07T11:18:20;13.00;;;11.70;;
78205;SDS011;67480;48.920;12.880;2024-01-07T11:20:47;13.20;;;11.90;;
78205;SDS011;67480;48.920;12.880;2024-01-07T11:25:58;12.45;;;10.32;;
78205;SDS011;67480;48.920;12.880;2024-01-07T11:31:10;11.43;;;9.93;;
78205;SDS011;67480;48.920;12.880;2024-01-07T11:33:39;10.82;;;8.68;;
78205;SDS011;67480;48.920;12.880;2024-01-07T11:36:07;10.70;;;8.68;;
78205;SDS011;67480;48.920;12.880;2024-01-07T11:38:36;8.77;;;7.97;;
78205;SDS011;67480;48.920;12.880;2024-01-07T11:41:04;10.52;;;8.52;;
78205;SDS011;67480;48.920;12.880;2024-01-07T11:43:31;9.60;;;8.23;;
78205;SDS011;67480;48.920;12.880;2024-01-07T11:45:57;9.00;;;8.10;;
78205;SDS011;67480;48.920;12.880;2024-01-07T11:48:23;10.38;;;9.27;;
78205;SDS011;67480;48.920;12.880;2024-01-07T11:50:48;10.73;;;9.70;;
78205;SDS011;67480;48.920;12.880;2024-01-07T11:53:14;10.30;;;9.30;;
78205;SDS011;67480;48.920;12.880;2024-01-07T11:55:39;11.23;;;9.60;;
78205;SDS011;67480;48.920;12.880;2024-01-07T11:58:05;10.63;;;9.52;;
78205;SDS011;67480;48.920;12.880;2024-01-07T12:00:31;9.57;;;8.23;;
78205;SDS011;67480;48.920;12.880;2024-01-07T12:02:57;8.38;;;7.57;;
78205;SDS011;67480;48.920;12.880;2024-01-07T12:05:23;8.48;;;7.43;;
78205;SDS011;67480;48.920;12.880;2024-01-07T12:07:48;7.70;;;6.90;;
78205;SDS011;67480;48.920;12.880;2024-01-07T12:10:14;10.43;;;6.75;;
78205;SDS011;67480;48.920;12.880;2024-01-07T12:12:40;7.40;;;6.53;;
78205;SDS011;67480;48.920;12.880;2024-01-07T12:15:10;6.45;;;5.93;;
78205;SDS011;67480;48.920;12.880;2024-01-07T12:17:38;6.03;;;5.53;;
78205;SDS011;67480;48.920;12.880;2024-01-07T12:20:06;7.00;;;6.00;;
78205;SDS011;67480;48.920;12.880;2024-01-07T12:22:33;6.53;;;5.80;;
78205;SDS011;67480;48.920;12.880;2024-01-07T12:25:02;6.35;;;5.32;;
78205;SDS011;67480;48.920;12.880;2024-01-07T12:27:31;6.20;;;5.60;;
78205;SDS011;67480;48.920;12.880;2024-01-07T12:29:57;6.15;;;5.30;;
78205;SDS011;67480;48.920;12.880;2024-01-07T12:32:26;5.32;;;4.82;;
78205;SDS011;67480;48.920;12.880;2024-01-07T12:34:52;6.78;;;5.00;;
78205;SDS011;67480;48.920;12.880;2024-01-07T12:37:18;7.43;;;6.57;;
78205;SDS011;67480;48.920;12.880;2024-01-07T12:41:45;7.10;;;6.35;;
78205;SDS011;67480;48.920;12.880;2024-01-07T12:44:12;9.35;;;8.45;;
78205;SDS011;67480;48.920;12.880;2024-01-07T12:46:37;7.35;;;6.70;;
78205;SDS011;67480;48.920;12.880;2024-01-07T12:49:02;7.55;;;6.85;;
78205;SDS011;67480;48.920;12.880;2024-01-07T12:51:28;7.63;;;6.93;;
78205;SDS011;67480;48.920;12.880;2024-01-07T12:53:53;8.10;;;7.30;;
78205;SDS011;67480;48.920;12.880;2024-01-07T12:56:21;7.85;;;7.10;;
78205;SDS011;67480;48.920;12.880;2024-01-07T12:58:46;6.90;;;6.30;;
78205;SDS011;67480;48.920;12.880;2024-01-07T13:01:12;6.15;;;5.55;;
78205;SDS011;67480;48.920;12.880;2024-01-07T13:03:37;6.88;;;6.18;;
78205;SDS011;67480;48.920;12.880;2024-01-07T13:06:02;6.50;;;5.72;;
78205;SDS011;67480;48.920;12.880;2024-01-07T13:08:28;6.45;;;5.85;;
78205;SDS011;67480;48.920;12.880;2024-01-07T13:10:54;6.55;;;5.75;;
78205;SDS011;67480;48.920;12.880;2024-01-07T13:13:20;6.18;;;5.57;;
78205;SDS011;67480;48.920;12.880;2024-01-07T13:15:45;6.22;;;5.63;;
78205;SDS011;67480;48.920;12.880;2024-01-07T13:18:10;6.00;;;5.28;;
78205;SDS011;67480;48.920;12.880;2024-01-07T13:20:37;13.00;;;11.70;;
78205;SDS011;67480;48.920;12.880;2024-01-07T13:23:04;27.05;;;24.65;;
78205;SDS011;67480;48.920;12.880;2024-01-07T13:25:30;11.95;;;10.75;;
78205;SDS011;67480;48.920;12.880;2024-01-07T13:27:56;18.02;;;16.13;;
78205;SDS011;67480;48.920;12.880;2024-01-07T13:30:21;11.02;;;9.95;;
78205;SDS011;67480;48.920;12.880;2024-01-07T13:32:46;11.48;;;10.38;;
78205;SDS011;67480;48.920;12.880;2024-01-07T13:35:11;10.20;;;9.30;;
78205;SDS011;67480;48.920;12.880;2024-01-07T13:37:38;10.25;;;9.25;;
78205;SDS011;67480;48.920;12.880;2024-01-07T13:40:06;11.25;;;10.13;;
78205;SDS011;67480;48.920;12.880;2024-01-07T13:42:35;9.32;;;8.52;;
78205;SDS011;67480;48.920;12.880;2024-01-07T13:45:00;9.20;;;8.27;;
78205;SDS011;67480;48.920;12.880;2024-01-07T13:47:25;8.35;;;7.55;;
78205;SDS011;67480;48.920;12.880;2024-01-07T13:49:51;8.18;;;7.38;;
78205;SDS011;67480;48.920;12.880;2024-01-07T13:52:16;8.30;;;7.43;;
78205;SDS011;67480;48.920;12.880;2024-01-07T13:54:42;8.43;;;7.60;;
78205;SDS011;67480;48.920;12.880;2024-01-07T13:57:07;9.00;;;7.10;;
78205;SDS011;67480;48.920;12.880;2024-01-07T13:59:33;8.20;;;7.38;;
78205;SDS011;67480;48.920;12.880;2024-01-07T14:01:58;7.55;;;6.65;;
78205;SDS011;67480;48.920;12.880;2024-01-07T14:04:24;7.53;;;6.78;;
78205;SDS011;67480;48.920;12.880;2024-01-07T14:06:55;7.32;;;6.60;;
78205;SDS011;67480;48.920;12.880;2024-01-07T14:09:21;6.90;;;6.20;;
78205;SDS011;67480;48.920;12.880;2024-01-07T14:11:46;7.70;;;6.38;;
78205;SDS011;67480;48.920;12.880;2024-01-07T14:14:12;7.72;;;6.60;;
78205;SDS011;67480;48.920;12.880;2024-01-07T14:16:37;6.70;;;6.03;;
78205;SDS011;67480;48.920;12.880;2024-01-07T14:19:03;7.45;;;6.70;;
78205;SDS011;67480;48.920;12.880;2024-01-07T14:21:28;7.03;;;6.32;;
78205;SDS011;67480;48.920;12.880;2024-01-07T14:23:55;8.38;;;7.60;;
78205;SDS011;67480;48.920;12.880;2024-01-07T14:26:20;54.78;;;48.95;;
78205;SDS011;67480;48.920;12.880;2024-01-07T14:28:48;49.40;;;44.92;;
78205;SDS011;67480;48.920;12.880;2024-01-07T14:31:14;25.98;;;23.65;;
78205;SDS011;67480;48.920;12.880;2024-01-07T14:33:39;22.90;;;20.75;;
78205;SDS011;67480;48.920;12.880;2024-01-07T14:36:06;20.25;;;18.40;;
78205;SDS011;67480;48.920;12.880;2024-01-07T14:38:31;20.20;;;18.17;;
78205;SDS011;67480;48.920;12.880;2024-01-07T14:40:57;19.83;;;17.92;;
78205;SDS011;67480;48.920;12.880;2024-01-07T14:43:22;14.15;;;11.95;;
78205;SDS011;67480;48.920;12.880;2024-01-07T14:45:47;16.52;;;14.82;;
78205;SDS011;67480;48.920;12.880;2024-01-07T14:48:12;17.38;;;15.27;;
78205;SDS011;67480;48.920;12.880;2024-01-07T14:50:39;14.20;;;12.70;;
78205;SDS011;67480;48.920;12.880;2024-01-07T14:53:04;14.80;;;12.63;;
78205;SDS011;67480;48.920;12.880;2024-01-07T14:55:30;14.43;;;12.90;;
78205;SDS011;67480;48.920;12.880;2024-01-07T14:57:55;12.88;;;11.57;;
78205;SDS011;67480;48.920;12.880;2024-01-07T15:00:20;15.65;;;13.48;;
78205;SDS011;67480;48.920;12.880;2024-01-07T15:02:46;11.50;;;10.05;;
78205;SDS011;67480;48.920;12.880;2024-01-07T15:05:11;11.82;;;9.30;;
78205;SDS011;67480;48.920;12.880;2024-01-07T15:07:37;11.88;;;9.77;;
78205;SDS011;67480;48.920;12.880;2024-01-07T15:10:02;11.32;;;9.65;;
78205;SDS011;67480;48.920;12.880;2024-01-07T15:12:28;9.93;;;8.90;;
78205;SDS011;67480;48.920;12.880;2024-01-07T15:15:01;10.88;;;8.93;;
78205;SDS011;67480;48.920;12.880;2024-01-07T15:17:30;10.23;;;9.13;;
78205;SDS011;67480;48.920;12.880;2024-01-07T15:19:56;11.07;;;8.57;;
78205;SDS011;67480;48.920;12.880;2024-01-07T15:22:21;12.50;;;11.20;;
78205;SDS011;67480;48.920;12.880;2024-01-07T15:24:46;24.15;;;19.80;;
78205;SDS011;67480;48.920;12.880;2024-01-07T15:27:12;15.60;;;12.75;;
78205;SDS011;67480;48.920;12.880;2024-01-07T15:29:37;11.73;;;10.23;;
78205;SDS011;67480;48.920;12.880;2024-01-07T15:32:02;11.60;;;10.32;;
78205;SDS011;67480;48.920;12.880;2024-01-07T15:34:29;12.02;;;9.50;;
78205;SDS011;67480;48.920;12.880;2024-01-07T15:36:54;9.70;;;8.63;;
78205;SDS011;67480;48.920;12.880;2024-01-07T15:39:19;10.57;;;9.10;;
78205;SDS011;67480;48.920;12.880;2024-01-07T15:41:45;11.05;;;9.50;;
78205;SDS011;67480;48.920;12.880;2024-01-07T15:44:11;11.52;;;10.20;;
78205;SDS011;67480;48.920;12.880;2024-01-07T15:46:36;10.80;;;8.95;;
78205;SDS011;67480;48.920;12.880;2024-01-07T15:49:02;11.18;;;9.52;;
78205;SDS011;67480;48.920;12.880;2024-01-07T15:51:27;10.18;;;8.65;;
78205;SDS011;67480;48.920;12.880;2024-01-07T15:53:52;9.45;;;8.45;;
78205;SDS011;67480;48.920;12.880;2024-01-07T15:56:18;10.85;;;8.35;;
78205;SDS011;67480;48.920;12.880;2024-01-07T15:58:45;10.57;;;8.73;;
78205;SDS011;67480;48.920;12.880;2024-01-07T16:01:10;9.93;;;8.80;;
78205;SDS011;67480;48.920;12.880;2024-01-07T16:03:36;15.18;;;13.13;;
78205;SDS011;67480;48.920;12.880;2024-01-07T16:06:01;25.08;;;22.85;;
78205;SDS011;67480;48.920;12.880;2024-01-07T16:08:27;14.68;;;13.18;;
78205;SDS011;67480;48.920;12.880;2024-01-07T16:10:57;12.48;;;11.18;;
78205;SDS011;67480;48.920;12.880;2024-01-07T16:13:24;13.05;;;11.73;;
78205;SDS011;67480;48.920;12.880;2024-01-07T16:15:50;13.57;;;10.55;;
78205;SDS011;67480;48.920;12.880;2024-01-07T16:18:15;11.68;;;10.40;;
78205;SDS011;67480;48.920;12.880;2024-01-07T16:20:41;11.27;;;9.82;;
78205;SDS011;67480;48.920;12.880;2024-01-07T16:23:07;11.60;;;10.23;;
78205;SDS011;67480;48.920;12.880;2024-01-07T16:25:32;10.65;;;9.32;;
78205;SDS011;67480;48.920;12.880;2024-01-07T16:27:57;10.23;;;8.77;;
78205;SDS011;67480;48.920;12.880;2024-01-07T16:30:24;11.38;;;8.95;;
78205;SDS011;67480;48.920;12.880;2024-01-07T16:32:49;10.45;;;9.35;;
78205;SDS011;67480;48.920;12.880;2024-01-07T16:35:15;9.98;;;8.88;;
78205;SDS011;67480;48.920;12.880;2024-01-07T16:37:40;10.95;;;9.35;;
78205;SDS011;67480;48.920;12.880;2024-01-07T16:40:06;10.55;;;8.73;;
78205;SDS011;67480;48.920;12.880;2024-01-07T16:42:32;12.93;;;9.13;;
78205;SDS011;67480;48.920;12.880;2024-01-07T16:44:57;12.23;;;9.63;;
78205;SDS011;67480;48.920;12.880;2024-01-07T16:47:22;12.00;;;9.07;;
78205;SDS011;67480;48.920;12.880;2024-01-07T16:49:48;15.40;;;12.77;;
78205;SDS011;67480;48.920;12.880;2024-01-07T16:52:14;15.25;;;10.57;;
78205;SDS011;67480;48.920;12.880;2024-01-07T16:54:39;9.57;;;8.27;;
78205;SDS011;67480;48.920;12.880;2024-01-07T16:57:06;10.45;;;8.70;;
78205;SDS011;67480;48.920;12.880;2024-01-07T16:59:31;10.30;;;8.57;;
78205;SDS011;67480;48.920;12.880;2024-01-07T17:01:56;13.52;;;11.20;;
78205;SDS011;67480;48.920;12.880;2024-01-07T17:04:22;9.40;;;8.40;;
78205;SDS011;67480;48.920;12.880;2024-01-07T17:06:47;10.55;;;8.75;;
78205;SDS011;67480;48.920;12.880;2024-01-07T17:09:13;9.82;;;8.15;;
78205;SDS011;67480;48.920;12.880;2024-01-07T17:11:39;10.93;;;8.90;;
78205;SDS011;67480;48.920;12.880;2024-01-07T17:14:06;9.57;;;8.57;;
78205;SDS011;67480;48.920;12.880;2024-01-07T17:16:31;9.68;;;8.05;;
78205;SDS011;67480;48.920;12.880;2024-01-07T17:18:56;8.85;;;7.95;;
78205;SDS011;67480;48.920;12.880;2024-01-07T17:21:21;9.40;;;8.05;;
78205;SDS011;67480;48.920;12.880;2024-01-07T17:23:47;8.70;;;7.43;;
78205;SDS011;67480;48.920;12.880;2024-01-07T17:26:19;9.60;;;7.80;;
78205;SDS011;67480;48.920;12.880;2024-01-07T17:28:44;7.80;;;6.97;;
78205;SDS011;67480;48.920;12.880;2024-01-07T17:31:10;8.65;;;7.43;;
78205;SDS011;67480;48.920;12.880;2024-01-07T17:33:36;7.97;;;7.18;;
78205;SDS011;67480;48.920;12.880;2024-01-07T17:36:01;9.55;;;7.53;;
78205;SDS011;67480;48.920;12.880;2024-01-07T17:38:27;8.10;;;7.05;;
78205;SDS011;67480;48.920;12.880;2024-01-07T17:40:52;8.35;;;7.03;;
78205;SDS011;67480;48.920;12.880;2024-01-07T17:43:17;7.85;;;6.97;;
78205;SDS011;67480;48.920;12.880;2024-01-07T17:45:43;8.55;;;6.95;;
78205;SDS011;67480;48.920;12.880;2024-01-07T17:48:08;7.22;;;6.53;;
78205;SDS011;67480;48.920;12.880;2024-01-07T17:50:34;8.13;;;6.80;;
78205;SDS011;67480;48.920;12.880;2024-01-07T17:52:59;9.55;;;7.90;;
78205;SDS011;67480;48.920;12.880;2024-01-07T17:55:28;7.53;;;6.43;;
78205;SDS011;67480;48.920;12.880;2024-01-07T17:57:54;8.95;;;6.53;;
78205;SDS011;67480;48.920;12.880;2024-01-07T18:00:20;7.45;;;6.63;;
78205;SDS011;67480;48.920;12.880;2024-01-07T18:02:47;9.20;;;6.65;;
78205;SDS011;67480;48.920;12.880;2024-01-07T18:05:12;8.73;;;7.10;;
78205;SDS011;67480;48.920;12.880;2024-01-07T18:07:38;8.13;;;6.47;;
78205;SDS011;67480;48.920;12.880;2024-01-07T18:10:03;6.93;;;6.10;;
78205;SDS011;67480;48.920;12.880;2024-01-07T18:12:31;6.78;;;5.85;;
78205;SDS011;67480;48.920;12.880;2024-01-07T18:14:57;8.38;;;6.65;;
78205;SDS011;67480;48.920;12.880;2024-01-07T18:17:22;7.95;;;6.90;;
78205;SDS011;67480;48.920;12.880;2024-01-07T18:19:47;8.00;;;6.20;;
78205;SDS011;67480;48.920;12.880;2024-01-07T18:22:13;7.82;;;6.43;;
78205;SDS011;67480;48.920;12.880;2024-01-07T18:24:38;7.95;;;6.55;;
78205;SDS011;67480;48.920;12.880;2024-01-07T18:27:03;7.50;;;6.20;;
78205;SDS011;67480;48.920;12.880;2024-01-07T18:29:29;8.10;;;6.78;;
78205;SDS011;67480;48.920;12.880;2024-01-07T18:31:54;6.82;;;6.22;;
78205;SDS011;67480;48.920;12.880;2024-01-07T18:34:20;6.90;;;6.07;;
78205;SDS011;67480;48.920;12.880;2024-01-07T18:36:45;6.70;;;5.93;;
78205;SDS011;67480;48.920;12.880;2024-01-07T18:39:11;6.80;;;6.10;;
78205;SDS011;67480;48.920;12.880;2024-01-07T18:41:36;8.18;;;6.60;;
78205;SDS011;67480;48.920;12.880;2024-01-07T18:44:04;6.75;;;6.15;;
78205;SDS011;67480;48.920;12.880;2024-01-07T18:46:30;8.35;;;5.88;;
78205;SDS011;67480;48.920;12.880;2024-01-07T18:48:56;6.22;;;5.68;;
78205;SDS011;67480;48.920;12.880;2024-01-07T18:51:21;6.72;;;5.90;;
78205;SDS011;67480;48.920;12.880;2024-01-07T18:53:46;7.47;;;6.20;;
78205;SDS011;67480;48.920;12.880;2024-01-07T18:56:12;7.70;;;6.05;;
78205;SDS011;67480;48.920;12.880;2024-01-07T18:58:37;6.47;;;5.70;;
78205;SDS011;67480;48.920;12.880;2024-01-07T19:01:05;6.43;;;5.70;;
78205;SDS011;67480;48.920;12.880;2024-01-07T19:03:31;6.75;;;6.05;;
78205;SDS011;67480;48.920;12.880;2024-01-07T19:05:56;7.38;;;6.05;;
78205;SDS011;67480;48.920;12.880;2024-01-07T19:08:21;6.72;;;5.90;;
78205;SDS011;67480;48.920;12.880;2024-01-07T19:10:47;8.05;;;5.82;;
78205;SDS011;67480;48.920;12.880;2024-01-07T19:13:12;6.90;;;6.20;;
78205;SDS011;67480;48.920;12.880;2024-01-07T19:15:38;6.30;;;5.70;;
78205;SDS011;67480;48.920;12.880;2024-01-07T19:18:05;6.43;;;5.75;;
78205;SDS011;67480;48.920;12.880;2024-01-07T19:20:30;6.30;;;5.57;;
78205;SDS011;67480;48.920;12.880;2024-01-07T19:22:56;8.18;;;6.60;;
78205;SDS011;67480;48.920;12.880;2024-01-07T19:25:22;7.95;;;5.93;;
78205;SDS011;67480;48.920;12.880;2024-01-07T19:27:47;6.50;;;5.55;;
78205;SDS011;67480;48.920;12.880;2024-01-07T19:30:14;6.97;;;6.15;;
78205;SDS011;67480;48.920;12.880;2024-01-07T19:32:40;8.35;;;6.28;;
78205;SDS011;67480;48.920;12.880;2024-01-07T19:35:06;6.80;;;5.97;;
78205;SDS011;67480;48.920;12.880;2024-01-07T19:37:32;9.55;;;5.70;;
78205;SDS011;67480;48.920;12.880;2024-01-07T19:39:58;6.70;;;5.82;;
78205;SDS011;67480;48.920;12.880;2024-01-07T19:42:25;7.68;;;6.68;;
78205;SDS011;67480;48.920;12.880;2024-01-07T19:44:50;6.68;;;5.75;;
78205;SDS011;67480;48.920;12.880;2024-01-07T19:47:16;6.15;;;5.55;;
78205;SDS011;67480;48.920;12.880;2024-01-07T19:49:41;6.60;;;5.47;;
78205;SDS011;67480;48.920;12.880;2024-01-07T19:52:07;7.70;;;6.03;;
78205;SDS011;67480;48.920;12.880;2024-01-07T19:54:32;7.18;;;5.43;;
78205;SDS011;67480;48.920;12.880;2024-01-07T19:56:57;5.65;;;5.10;;
78205;SDS011;67480;48.920;12.880;2024-01-07T19:59:22;6.38;;;4.95;;
78205;SDS011;67480;48.920;12.880;2024-01-07T20:01:48;6.00;;;5.38;;
78205;SDS011;67480;48.920;12.880;2024-01-07T20:04:14;6.18;;;5.50;;
78205;SDS011;67480;48.920;12.880;2024-01-07T20:06:39;7.15;;;5.32;;
78205;SDS011;67480;48.920;12.880;2024-01-07T20:09:05;7.15;;;5.65;;
78205;SDS011;67480;48.920;12.880;2024-01-07T20:11:30;6.40;;;5.20;;
78205;SDS011;67480;48.920;12.880;2024-01-07T20:13:57;6.43;;;5.13;;
78205;SDS011;67480;48.920;12.880;2024-01-07T20:16:22;6.57;;;5.68;;
78205;SDS011;67480;48.920;12.880;2024-01-07T20:18:48;6.43;;;4.95;;
78205;SDS011;67480;48.920;12.880;2024-01-07T20:21:21;7.05;;;5.43;;
78205;SDS011;67480;48.920;12.880;2024-01-07T20:23:51;7.30;;;5.72;;
78205;SDS011;67480;48.920;12.880;2024-01-07T20:26:19;6.88;;;5.63;;
78205;SDS011;67480;48.920;12.880;2024-01-07T20:28:47;6.85;;;5.30;;
78205;SDS011;67480;48.920;12.880;2024-01-07T20:31:15;8.15;;;5.50;;
78205;SDS011;67480;48.920;12.880;2024-01-07T20:33:40;5.30;;;4.80;;
78205;SDS011;67480;48.920;12.880;2024-01-07T20:36:06;6.22;;;5.28;;
78205;SDS011;67480;48.920;12.880;2024-01-07T20:38:37;6.28;;;5.05;;
78205;SDS011;67480;48.920;12.880;2024-01-07T20:41:03;7.28;;;5.43;;
78205;SDS011;67480;48.920;12.880;2024-01-07T20:43:29;6.00;;;5.40;;
78205;SDS011;67480;48.920;12.880;2024-01-07T20:45:54;5.60;;;4.80;;
78205;SDS011;67480;48.920;12.880;2024-01-07T20:48:21;5.07;;;4.55;;
78205;SDS011;67480;48.920;12.880;2024-01-07T20:50:46;4.93;;;4.40;;
78205;SDS011;67480;48.920;12.880;2024-01-07T20:53:12;5.03;;;4.63;;
78205;SDS011;67480;48.920;12.880;2024-01-07T20:55:38;6.40;;;4.68;;
78205;SDS011;67480;48.920;12.880;2024-01-07T20:58:04;6.38;;;4.80;;
78205;SDS011;67480;48.920;12.880;2024-01-07T21:00:30;4.82;;;4.38;;
78205;SDS011;67480;48.920;12.880;2024-01-07T21:02:55;5.93;;;4.80;;
78205;SDS011;67480;48.920;12.880;2024-01-07T21:05:20;6.00;;;5.30;;
78205;SDS011;67480;48.920;12.880;2024-01-07T21:07:47;6.43;;;5.20;;
78205;SDS011;67480;48.920;12.880;2024-01-07T21:10:16;6.30;;;5.38;;
78205;SDS011;67480;48.920;12.880;2024-01-07T21:12:43;6.07;;;5.10;;
78205;SDS011;67480;48.920;12.880;2024-01-07T21:15:09;6.70;;;4.63;;
78205;SDS011;67480;48.920;12.880;2024-01-07T21:17:35;5.57;;;4.95;;
78205;SDS011;67480;48.920;12.880;2024-01-07T21:20:04;5.97;;;5.03;;
78205;SDS011;67480;48.920;12.880;2024-01-07T21:22:31;6.18;;;4.90;;
78205;SDS011;67480;48.920;12.880;2024-01-07T21:24:56;5.95;;;4.80;;
78205;SDS011;67480;48.920;12.880;2024-01-07T21:27:21;6.32;;;4.80;;
78205;SDS011;67480;48.920;12.880;2024-01-07T21:29:46;6.05;;;4.47;;
78205;SDS011;67480;48.920;12.880;2024-01-07T21:32:13;8.30;;;5.18;;
78205;SDS011;67480;48.920;12.880;2024-01-07T21:34:38;6.55;;;5.07;;
78205;SDS011;67480;48.920;12.880;2024-01-07T21:37:04;6.50;;;4.72;;
78205;SDS011;67480;48.920;12.880;2024-01-07T21:39:29;6.28;;;4.60;;
78205;SDS011;67480;48.920;12.880;2024-01-07T21:41:54;5.30;;;4.32;;
78205;SDS011;67480;48.920;12.880;2024-01-07T21:44:19;5.22;;;4.72;;
78205;SDS011;67480;48.920;12.880;2024-01-07T21:46:46;5.78;;;5.05;;
78205;SDS011;67480;48.920;12.880;2024-01-07T21:49:12;5.72;;;4.32;;
78205;SDS011;67480;48.920;12.880;2024-01-07T21:51:39;5.35;;;4.85;;
78205;SDS011;67480;48.920;12.880;2024-01-07T21:54:04;5.20;;;4.70;;
78205;SDS011;67480;48.920;12.880;2024-01-07T21:56:30;4.65;;;4.25;;
78205;SDS011;67480;48.920;12.880;2024-01-07T21:58:55;6.38;;;4.80;;
78205;SDS011;67480;48.920;12.880;2024-01-07T22:01:20;7.40;;;5.45;;
78205;SDS011;67480;48.920;12.880;2024-01-07T22:03:46;5.47;;;4.63;;
78205;SDS011;67480;48.920;12.880;2024-01-07T22:06:11;5.65;;;5.00;;
78205;SDS011;67480;48.920;12.880;2024-01-07T22:08:38;5.50;;;4.80;;
78205;SDS011;67480;48.920;12.880;2024-01-07T22:11:10;4.80;;;4.30;;
78205;SDS011;67480;48.920;12.880;2024-01-07T22:13:37;4.95;;;4.28;;
78205;SDS011;67480;48.920;12.880;2024-01-07T22:16:02;5.53;;;4.93;;
78205;SDS011;67480;48.920;12.880;2024-01-07T22:18:27;5.28;;;4.35;;
78205;SDS011;67480;48.920;12.880;2024-01-07T22:20:53;5.05;;;4.20;;
78205;SDS011;67480;48.920;12.880;2024-01-07T22:23:19;5.70;;;4.82;;
78205;SDS011;67480;48.920;12.880;2024-01-07T22:25:44;5.43;;;4.82;;
78205;SDS011;67480;48.920;12.880;2024-01-07T22:28:09;4.72;;;4.22;;
78205;SDS011;67480;48.920;12.880;2024-01-07T22:30:35;4.78;;;4.25;;
78205;SDS011;67480;48.920;12.880;2024-01-07T22:33:00;5.47;;;4.97;;
78205;SDS011;67480;48.920;12.880;2024-01-07T22:35:25;5.93;;;4.40;;
78205;SDS011;67480;48.920;12.880;2024-01-07T22:37:51;5.68;;;4.78;;
78205;SDS011;67480;48.920;12.880;2024-01-07T22:40:17;4.85;;;4.35;;
78205;SDS011;67480;48.920;12.880;2024-01-07T22:42:42;4.63;;;4.15;;
78205;SDS011;67480;48.920;12.880;2024-01-07T22:45:07;4.53;;;4.13;;
78205;SDS011;67480;48.920;12.880;2024-01-07T22:47:34;5.38;;;4.28;;
78205;SDS011;67480;48.920;12.880;2024-01-07T22:49:59;4.68;;;4.22;;
78205;SDS011;67480;48.920;12.880;2024-01-07T22:52:25;5.95;;;4.65;;
78205;SDS011;67480;48.920;12.880;2024-01-07T22:54:50;4.68;;;4.18;;
78205;SDS011;67480;48.920;12.880;2024-01-07T22:57:15;4.70;;;4.20;;
78205;SDS011;67480;48.920;12.880;2024-01-07T22:59:41;5.10;;;4.22;;
78205;SDS011;67480;48.920;12.880;2024-01-07T23:02:06;4.97;;;4.22;;
78205;SDS011;67480;48.920;12.880;2024-01-07T23:04:31;4.38;;;3.97;;
78205;SDS011;67480;48.920;12.880;2024-01-07T23:06:57;7.63;;;4.25;;
78205;SDS011;67480;48.920;12.880;2024-01-07T23:09:22;4.93;;;4.50;;
78205;SDS011;67480;48.920;12.880;2024-01-07T23:11:47;5.38;;;4.30;;
78205;SDS011;67480;48.920;12.880;2024-01-07T23:14:13;4.40;;;4.00;;
78205;SDS011;67480;48.920;12.880;2024-01-07T23:16:38;4.97;;;4.57;;
78205;SDS011;67480;48.920;12.880;2024-01-07T23:19:05;5.05;;;4.40;;
78205;SDS011;67480;48.920;12.880;2024-01-07T23:21:30;4.63;;;4.22;;
78205;SDS011;67480;48.920;12.880;2024-01-07T23:23:55;4.97;;;4.30;;
78205;SDS011;67480;48.920;12.880;2024-01-07T23:26:21;4.70;;;4.20;;
78205;SDS011;67480;48.920;12.880;2024-01-07T23:28:46;4.70;;;4.20;;
78205;SDS011;67480;48.920;12.880;2024-01-07T23:31:12;4.70;;;4.30;;